Time;durP1;ratioP1;P1;durP2;ratioP2;P2;SDS_P1;SDS_P2;PMS_P1;PMS_P2;Temp;Humidity;BMP_temperature;BMP_pressure;BME280_temperature;BME280_humidity;BME280_pressure;Samples;Min_cycle;Max_cycle;Signal;HPM_P1;HPM_P2
2022/11/04 00:00:24;;;;;;;23.02;12.20;;;;;;;10.52;64.01;97898.94;4981529;28;20074;-70
2022/11/04 00:02:49;;;;;;;19.60;11.45;;;;;;;10.51;64.39;97896.50;4986822;28;20439;-70
2022/11/04 00:05:15;;;;;;;23.33;12.30;;;;;;;10.52;64.45;97895.38;4988125;28;20023;-69
2022/11/04 00:13:12;;;;;;;22.83;12.73;;;;;;;10.61;63.98;97890.78;4983406;28;20379;-70
2022/11/04 00:18:21;;;;;;;20.55;12.73;;;;;;;10.67;64.28;97881.31;4986751;28;20126;-70
2022/11/04 00:28:58;;;;;;;18.33;10.27;;;;;;;10.82;64.09;97858.19;4984775;28;20432;-70
2022/11/04 00:34:24;;;;;;;15.60;8.43;;;;;;;10.95;64.05;97858.44;4949400;29;20039;-69
2022/11/04 00:36:49;;;;;;;14.63;8.02;;;;;;;11.02;63.76;97856.03;4979012;28;20089;-70
2022/11/04 00:39:15;;;;;;;14.45;7.47;;;;;;;11.09;64.17;97858.34;4984280;28;20578;-69
2022/11/04 00:41:40;;;;;;;13.98;7.35;;;;;;;11.15;63.59;97863.38;4984914;28;20022;-70
2022/11/04 00:44:05;;;;;;;11.35;6.68;;;;;;;11.22;63.67;97856.63;4983531;28;20677;-70
2022/11/04 00:46:32;;;;;;;11.25;6.85;;;;;;;11.31;63.26;97854.75;4989736;28;20022;-69
2022/11/04 00:48:58;;;;;;;12.23;6.47;;;;;;;11.38;63.00;97854.28;4987456;28;20057;-70
2022/11/04 00:51:23;;;;;;;10.70;6.45;;;;;;;11.43;63.11;97843.94;4987536;28;20027;-70
2022/11/04 00:53:49;;;;;;;11.73;6.65;;;;;;;11.50;62.51;97837.19;4985213;28;20073;-70
2022/11/04 00:56:15;;;;;;;12.75;6.57;;;;;;;11.55;63.07;97837.88;4982014;28;20052;-70
2022/11/04 00:58:41;;;;;;;17.10;9.45;;;;;;;11.54;62.18;97835.44;4984894;28;20026;-70
2022/11/04 01:01:11;;;;;;;15.82;9.82;;;;;;;11.49;62.41;97830.09;4990642;28;20029;-71
2022/11/04 01:03:37;;;;;;;17.77;10.15;;;;;;;11.42;62.96;97823.13;4988278;28;20035;-70
2022/11/04 01:06:02;;;;;;;19.42;10.35;;;;;;;11.40;62.42;97835.56;4987853;28;20113;-70
2022/11/04 01:08:28;;;;;;;21.40;11.20;;;;;;;11.38;62.81;97837.81;4984950;28;20077;-70
2022/11/04 01:10:53;;;;;;;17.40;10.27;;;;;;;11.34;62.69;97829.41;4984918;28;20064;-70
2022/11/04 01:13:18;;;;;;;18.98;10.90;;;;;;;11.31;62.97;97822.59;4983472;28;20581;-70
2022/11/04 01:15:44;;;;;;;20.70;11.05;;;;;;;11.29;63.06;97824.06;4966701;28;20039;-70
2022/11/04 01:18:09;;;;;;;18.40;10.35;;;;;;;11.30;62.61;97820.19;4968283;28;20090;-70
2022/11/04 01:20:34;;;;;;;19.60;10.77;;;;;;;11.29;63.20;97810.31;4987001;28;20037;-70
2022/11/04 01:23:00;;;;;;;17.92;10.52;;;;;;;11.28;62.50;97805.97;4987112;28;20753;-70
2022/11/04 01:25:25;;;;;;;17.80;10.52;;;;;;;11.25;63.18;97807.38;4983896;28;20089;-71
2022/11/04 01:27:52;;;;;;;20.27;11.00;;;;;;;11.23;62.83;97804.16;4982618;28;20126;-71
2022/11/04 01:30:17;;;;;;;18.08;10.82;;;;;;;11.24;62.98;97804.97;4987229;28;20057;-71
2022/11/04 01:32:42;;;;;;;18.52;10.98;;;;;;;11.22;63.01;97801.72;4990132;28;20105;-70
2022/11/04 01:35:09;;;;;;;20.55;11.20;;;;;;;11.26;62.86;97803.53;4987482;28;20018;-71
2022/11/04 01:37:34;;;;;;;17.50;11.00;;;;;;;11.23;62.67;97793.16;4986521;28;20456;-70
2022/11/04 01:39:59;;;;;;;17.27;10.98;;;;;;;11.23;62.65;97798.66;4966933;28;20028;-70
2022/11/04 01:42:25;;;;;;;19.77;12.13;;;;;;;11.21;63.17;97792.69;4983919;28;20118;-70
2022/11/04 01:44:58;;;;;;;19.88;11.32;;;;;;;11.18;62.76;97790.59;4981851;28;20037;-71
2022/11/04 01:47:38;;;;;;;20.33;11.15;;;;;;;11.14;62.60;97790.41;4970685;28;20089;-70
2022/11/04 01:50:14;;;;;;;19.42;11.35;;;;;;;11.15;62.62;97788.47;4987632;28;20045;-70
2022/11/04 01:52:50;;;;;;;20.38;11.77;;;;;;;11.17;63.25;97786.22;4986598;28;20515;-70
2022/11/04 01:55:22;;;;;;;22.15;10.90;;;;;;;11.15;63.00;97769.28;4983554;28;20035;-70
2022/11/04 01:57:50;;;;;;;20.05;11.05;;;;;;;11.13;62.54;97772.31;4984702;28;20025;-71
2022/11/04 02:00:16;;;;;;;19.42;11.55;;;;;;;11.10;63.02;97761.97;4983653;28;20512;-70
2022/11/04 02:03:06;;;;;;;19.95;11.82;;;;;;;11.06;62.43;97757.44;4989608;28;20038;-70
2022/11/04 02:05:31;;;;;;;20.38;11.50;;;;;;;11.01;63.09;97752.88;4985526;28;20025;-70
2022/11/04 02:08:01;;;;;;;17.38;10.82;;;;;;;10.97;63.19;97752.72;4983216;28;20527;-70
2022/11/04 02:10:28;;;;;;;17.52;10.40;;;;;;;10.93;62.40;97757.22;4985131;28;20066;-71
2022/11/04 02:12:57;;;;;;;19.98;11.02;;;;;;;10.92;63.15;97755.59;4983870;28;20025;-71
2022/11/04 02:15:34;;;;;;;17.52;10.43;;;;;;;10.89;62.58;97749.94;4980777;28;20124;-71
2022/11/04 02:18:19;;;;;;;17.08;10.38;;;;;;;10.85;62.97;97753.31;4988999;28;20494;-70
2022/11/04 02:21:06;;;;;;;20.77;10.48;;;;;;;10.85;62.80;97755.25;4989238;28;20018;-69
2022/11/04 02:24:09;;;;;;;16.60;9.70;;;;;;;10.89;62.95;97737.03;4984594;28;20026;-70
2022/11/04 02:26:54;;;;;;;18.30;11.07;;;;;;;10.91;63.51;97739.47;4964588;28;20027;-71
2022/11/04 02:29:45;;;;;;;17.20;10.45;;;;;;;10.92;63.51;97730.91;4985708;28;20034;-70
2022/11/04 02:32:33;;;;;;;14.68;9.75;;;;;;;10.94;63.27;97733.34;4981145;28;20038;-70
2022/11/04 02:35:19;;;;;;;16.40;9.60;;;;;;;10.91;63.51;97734.78;4984271;28;20029;-70
2022/11/04 02:37:54;;;;;;;15.70;9.80;;;;;;;10.93;63.23;97739.97;4989143;28;20031;-70
2022/11/04 02:40:45;;;;;;;17.30;9.73;;;;;;;10.93;63.50;97729.78;4988125;28;20563;-70
2022/11/04 02:43:45;;;;;;;17.00;10.10;;;;;;;10.98;62.91;97731.59;4984308;28;20471;-69
2022/11/04 02:46:23;;;;;;;18.00;9.55;;;;;;;10.99;62.97;97734.00;4983453;28;20109;-70
2022/11/04 02:49:06;;;;;;;15.18;9.43;;;;;;;11.00;62.93;97730.13;4981699;28;20393;-70
2022/11/04 02:51:38;;;;;;;16.60;9.27;;;;;;;11.02;62.53;97733.38;4980322;28;20026;-70
2022/11/04 02:54:12;;;;;;;17.80;9.27;;;;;;;11.02;63.13;97738.88;4983638;28;20153;-70
2022/11/04 02:56:43;;;;;;;18.73;10.65;;;;;;;11.04;62.48;97735.00;4989573;28;20018;-70
2022/11/04 02:59:36;;;;;;;18.73;10.48;;;;;;;11.04;63.16;97738.53;4987555;28;20045;-69
2022/11/04 03:02:06;;;;;;;18.40;11.07;;;;;;;11.06;62.59;97730.78;4983539;28;20033;-70
2022/11/04 03:04:37;;;;;;;19.38;11.13;;;;;;;11.05;62.30;97726.44;4966257;28;20073;-70
2022/11/04 03:07:07;;;;;;;23.90;12.35;;;;;;;11.01;62.39;97729.00;4984619;28;20027;-69
2022/11/04 03:09:35;;;;;;;19.50;11.75;;;;;;;11.02;62.44;97730.63;4980728;28;20043;-70
2022/11/04 03:12:06;;;;;;;22.95;12.18;;;;;;;10.98;62.91;97721.41;4982421;28;20034;-70
2022/11/04 03:14:46;;;;;;;19.88;11.98;;;;;;;10.94;62.91;97719.63;4971239;28;20033;-70
2022/11/04 03:17:25;;;;;;;23.95;12.60;;;;;;;10.94;62.45;97714.94;4970799;28;20018;-70
2022/11/04 03:19:57;;;;;;;18.20;11.93;;;;;;;10.91;62.41;97712.81;4983572;28;20027;-69
2022/11/04 03:22:26;;;;;;;20.42;12.35;;;;;;;10.85;62.55;97711.34;4981797;28;20026;-70
2022/11/04 03:24:52;;;;;;;20.77;12.65;;;;;;;10.79;62.78;97705.19;4983685;28;20084;-70
2022/11/04 03:27:33;;;;;;;21.23;11.63;;;;;;;10.73;62.60;97709.22;4981252;28;20026;-70
2022/11/04 03:30:14;;;;;;;20.95;11.77;;;;;;;10.68;62.90;97704.69;4989334;28;20034;-70
2022/11/04 03:32:55;;;;;;;21.10;12.70;;;;;;;10.68;62.52;97707.41;4987620;28;20022;-70
2022/11/04 03:35:21;;;;;;;24.27;13.77;;;;;;;10.62;62.61;97692.22;4983615;28;20030;-70
2022/11/04 03:37:48;;;;;;;23.90;13.68;;;;;;;10.56;62.40;97688.81;4985624;28;20069;-70
2022/11/04 03:40:15;;;;;;;25.25;13.80;;;;;;;10.53;62.65;97694.94;4982309;28;20030;-70
2022/11/04 03:42:45;;;;;;;23.75;14.18;;;;;;;10.47;62.67;97698.09;4983284;28;20088;-70
2022/11/04 03:45:11;;;;;;;;;;;;;;;10.44;62.34;97696.81;4979835;28;20078;-70
2022/11/04 03:47:36;;;;;;;27.63;14.93;;;;;;;10.39;62.60;97694.19;4981943;28;19917;-70
2022/11/04 03:50:24;;;;;;;25.48;13.82;;;;;;;10.30;63.18;97688.66;4988374;28;20069;-70
2022/11/04 03:52:50;;;;;;;27.35;14.27;;;;;;;10.23;63.41;97691.00;4985844;28;20026;-70
2022/11/04 03:55:15;;;;;;;26.65;14.73;;;;;;;10.17;62.72;97693.09;4984843;28;20113;-69
2022/11/04 03:58:03;;;;;;;27.05;14.43;;;;;;;10.08;63.17;97693.00;4981945;28;20062;-70
2022/11/04 04:00:36;;;;;;;25.92;13.68;;;;;;;10.07;62.93;97685.91;4964462;28;20030;-70
2022/11/04 04:03:10;;;;;;;27.30;15.82;;;;;;;10.03;63.29;97682.16;4981753;28;20019;-70
2022/11/04 04:05:39;;;;;;;31.17;15.90;;;;;;;10.01;63.43;97680.88;4986127;28;20089;-71
2022/11/04 04:08:07;;;;;;;33.92;17.05;;;;;;;9.98;63.29;97679.59;4990415;28;20034;-70
2022/11/04 04:10:40;;;;;;;28.92;15.38;;;;;;;9.93;62.84;97668.75;4990341;28;20058;-71
2022/11/04 04:13:17;;;;;;;28.23;14.40;;;;;;;9.84;63.79;97660.44;4987113;28;20018;-70
2022/11/04 04:15:56;;;;;;;25.67;14.75;;;;;;;9.76;63.26;97655.72;4984410;28;20126;-71
2022/11/04 04:18:39;;;;;;;24.40;13.02;;;;;;;9.67;63.13;97650.16;4983951;28;20102;-70
2022/11/04 04:21:09;;;;;;;23.58;13.65;;;;;;;9.62;63.18;97653.03;4984590;28;20106;-70
2022/11/04 04:29:07;;;;;;;25.92;13.40;;;;;;;9.55;63.62;97658.16;4972871;28;20045;-70
2022/11/04 04:31:48;;;;;;;24.02;13.30;;;;;;;9.52;64.10;97654.06;4985421;28;20022;-70
2022/11/04 04:34:18;;;;;;;32.30;15.18;;;;;;;9.49;63.62;97646.47;4983491;28;20106;-69
2022/11/04 04:36:50;;;;;;;;;;;;;;;9.49;63.93;97643.75;4983655;28;20072;-70
2022/11/04 04:45:04;;;;;;;33.80;16.52;;;;;;;9.36;64.05;97638.03;4988391;28;20038;-70
2022/11/04 04:47:41;;;;;;;31.65;15.88;;;;;;;9.30;64.04;97632.97;4973720;28;20061;-70
2022/11/04 04:50:09;;;;;;;29.73;15.02;;;;;;;9.24;64.17;97629.53;4987436;28;20034;-71
2022/11/04 04:52:38;;;;;;;26.80;13.50;;;;;;;9.18;63.83;97628.81;4985200;28;20038;-70
2022/11/04 04:55:04;;;;;;;24.38;12.75;;;;;;;9.14;63.63;97630.59;4982208;28;20047;-70
2022/11/04 04:57:30;;;;;;;20.50;13.85;;;;;;;9.07;64.25;97630.97;4988249;28;20113;-70
2022/11/04 04:59:55;;;;;;;24.25;13.65;;;;;;;9.04;63.91;97623.38;4973644;28;20141;-70
2022/11/04 05:02:21;;;;;;;25.20;14.10;;;;;;;9.02;64.43;97617.41;4989797;28;20029;-70
2022/11/04 05:04:46;;;;;;;30.02;13.82;;;;;;;9.01;64.26;97610.31;4985568;28;20022;-70
2022/11/04 05:07:12;;;;;;;27.63;14.25;;;;;;;9.03;64.35;97615.50;4987579;28;20023;-70
2022/11/04 05:09:37;;;;;;;29.75;14.73;;;;;;;9.07;64.60;97619.25;4985712;28;20932;-71
2022/11/04 05:12:03;;;;;;;31.42;15.32;;;;;;;9.10;64.30;97615.91;4983185;28;20465;-70
2022/11/04 05:14:29;;;;;;;30.40;14.50;;;;;;;9.13;64.28;97623.50;4970103;28;20384;-70
2022/11/04 05:16:54;;;;;;;27.98;13.68;;;;;;;9.14;64.60;97616.91;4990531;28;20027;-71
2022/11/04 05:19:20;;;;;;;26.90;14.13;;;;;;;9.18;65.23;97617.09;4971446;28;20029;-70
2022/11/04 05:21:45;;;;;;;25.92;14.48;;;;;;;9.21;64.90;97608.25;4987762;28;20026;-71
2022/11/04 05:24:11;;;;;;;21.83;12.52;;;;;;;9.25;64.50;97609.25;4985471;28;20242;-71
2022/11/04 05:26:36;;;;;;;23.25;13.13;;;;;;;9.30;64.53;97606.41;4986005;28;20026;-70
2022/11/04 05:29:01;;;;;;;21.08;12.52;;;;;;;9.34;65.05;97603.84;4982590;28;20023;-70
2022/11/04 05:31:29;;;;;;;23.92;13.35;;;;;;;9.37;64.69;97606.78;4985471;28;20027;-71
2022/11/04 05:33:54;;;;;;;19.48;11.10;;;;;;;9.38;64.67;97600.19;4973095;28;20073;-71
2022/11/04 05:36:19;;;;;;;19.95;11.70;;;;;;;9.38;65.22;97602.91;4973253;28;20519;-71
2022/11/04 05:38:49;;;;;;;18.90;11.13;;;;;;;9.42;64.86;97602.31;4973566;28;20030;-71
2022/11/04 05:41:24;;;;;;;18.58;10.80;;;;;;;9.46;64.42;97608.78;4974088;28;20074;-71
2022/11/04 05:43:51;;;;;;;19.05;10.45;;;;;;;9.48;65.16;97601.06;4957887;28;20038;-70
2022/11/04 05:46:17;;;;;;;20.35;11.00;;;;;;;9.52;65.45;97604.81;4977932;28;20069;-71
2022/11/04 05:48:42;;;;;;;22.40;13.20;;;;;;;9.57;65.29;97614.84;4979096;28;20464;-70
2022/11/04 05:51:12;;;;;;;23.27;13.70;;;;;;;9.62;65.09;97631.13;4977529;28;20388;-71
2022/11/04 05:53:39;;;;;;;22.20;13.15;;;;;;;9.67;64.97;97625.53;4984268;28;20033;-71
2022/11/04 05:56:05;;;;;;;23.42;13.43;;;;;;;9.68;65.25;97627.97;4990861;28;20038;-71
2022/11/04 05:58:30;;;;;;;20.48;13.23;;;;;;;9.73;64.67;97627.03;4991585;28;20030;-70
2022/11/04 06:01:30;;;;;;;21.45;12.15;;;;;;;9.77;64.86;97629.97;4972651;28;20026;-70
2022/11/04 06:03:56;;;;;;;;;;;;;;;9.85;64.87;97633.88;4987482;28;20149;-70
2022/11/04 06:06:22;;;;;;;22.10;12.00;;;;;;;9.89;65.38;97623.94;4970029;28;19918;-70
2022/11/04 06:08:49;;;;;;;23.10;11.70;;;;;;;9.92;64.89;97620.56;4986892;28;20041;-71
2022/11/04 06:11:14;;;;;;;22.25;11.57;;;;;;;9.96;64.65;97624.28;4983438;28;20033;-71
2022/11/04 06:13:40;;;;;;;22.85;12.63;;;;;;;9.97;65.40;97631.41;4984507;28;20011;-70
2022/11/04 06:16:06;;;;;;;24.40;12.65;;;;;;;10.01;64.64;97637.84;4965792;28;20041;-71
2022/11/04 06:18:32;;;;;;;23.48;12.52;;;;;;;10.03;65.65;97638.34;4989588;28;20192;-71
2022/11/04 06:21:24;;;;;;;21.55;13.07;;;;;;;10.03;64.93;97638.34;4988958;28;20515;-71
2022/11/04 06:23:50;;;;;;;20.60;11.95;;;;;;;10.06;64.64;97642.41;4983822;28;20455;-70
2022/11/04 06:26:15;;;;;;;20.27;11.60;;;;;;;10.04;64.85;97648.16;4984163;28;20030;-70
2022/11/04 06:28:41;;;;;;;19.48;11.52;;;;;;;10.07;65.14;97650.28;4984975;28;20022;-71
2022/11/04 06:31:08;;;;;;;18.88;11.20;;;;;;;10.11;65.59;97651.28;4981698;28;20542;-71
2022/11/04 06:33:34;;;;;;;19.85;11.75;;;;;;;10.15;65.44;97642.44;4983755;28;20077;-70
2022/11/04 06:36:01;;;;;;;17.90;11.57;;;;;;;10.18;65.44;97647.28;4989003;28;20022;-74
2022/11/04 06:38:30;;;;;;;18.90;12.00;;;;;;;10.19;64.33;97643.44;4984373;28;20484;-74
2022/11/04 06:40:55;;;;;;;18.58;11.15;;;;;;;10.22;64.99;97640.06;4987011;28;20546;-74
2022/11/04 06:43:21;;;;;;;18.25;11.57;;;;;;;10.24;65.15;97637.81;4968812;28;20022;-74
2022/11/04 06:45:53;;;;;;;19.42;11.52;;;;;;;10.25;64.87;97651.19;4981666;28;20118;-74
2022/11/04 06:48:19;;;;;;;17.92;11.02;;;;;;;10.26;65.71;97647.34;4958830;28;20532;-74
2022/11/04 06:50:44;;;;;;;18.35;11.15;;;;;;;10.27;65.00;97642.69;4975251;28;20070;-73
2022/11/04 06:53:10;;;;;;;20.10;11.27;;;;;;;10.32;65.09;97644.47;4984552;28;20468;-74
2022/11/04 06:55:35;;;;;;;21.02;11.45;;;;;;;10.36;65.40;97646.28;4977557;28;20026;-74
2022/11/04 06:58:00;;;;;;;21.67;12.02;;;;;;;10.41;64.78;97643.41;4976278;28;20023;-73
2022/11/04 07:00:26;;;;;;;20.52;12.27;;;;;;;10.46;65.20;97645.22;4976906;28;20382;-74
2022/11/04 07:02:51;;;;;;;22.23;13.00;;;;;;;10.49;64.69;97643.78;4979105;28;20027;-73
2022/11/04 07:05:16;;;;;;;20.67;13.27;;;;;;;10.51;65.51;97636.03;4978494;28;20480;-74
2022/11/04 07:07:42;;;;;;;24.58;14.18;;;;;;;10.51;65.04;97634.13;4971929;28;20444;-72
2022/11/04 07:10:07;;;;;;;30.60;16.42;;;;;;;10.53;64.55;97634.63;4973675;28;20105;-72
2022/11/04 07:12:33;;;;;;;35.92;17.85;;;;;;;10.55;64.97;97631.53;4973850;28;20046;-72
2022/11/04 07:14:58;;;;;;;32.30;17.45;;;;;;;10.59;65.20;97632.53;4978410;28;20461;-72
2022/11/04 07:17:24;;;;;;;29.00;15.48;;;;;;;10.63;65.03;97628.03;4986804;28;20034;-75
2022/11/04 07:19:52;;;;;;;22.30;13.63;;;;;;;10.65;64.94;97625.78;4970655;28;20034;-74
2022/11/04 07:22:17;;;;;;;21.70;13.45;;;;;;;10.68;65.09;97624.31;4977823;28;20508;-73
2022/11/04 07:24:43;;;;;;;24.63;13.52;;;;;;;10.68;64.37;97619.66;4978955;28;20031;-71
2022/11/04 07:27:08;;;;;;;24.27;13.85;;;;;;;10.71;64.82;97629.19;4972579;28;20027;-71
2022/11/04 07:29:34;;;;;;;28.52;15.13;;;;;;;10.72;64.75;97623.41;4972800;28;20026;-73
2022/11/04 07:31:59;;;;;;;23.92;13.75;;;;;;;10.73;64.73;97618.69;4983704;28;20042;-71
2022/11/04 07:34:24;;;;;;;27.02;12.75;;;;;;;10.76;64.74;97620.00;4959675;28;20038;-71
2022/11/04 07:36:50;;;;;;;22.45;13.07;;;;;;;10.79;64.61;97616.63;4954779;28;20507;-72
2022/11/04 07:39:15;;;;;;;22.40;12.90;;;;;;;10.81;64.86;97620.66;4973226;28;20039;-72
2022/11/04 07:41:41;;;;;;;19.85;13.27;;;;;;;10.85;64.65;97615.34;4979249;28;20023;-71
2022/11/04 07:44:10;;;;;;;23.40;14.05;;;;;;;10.89;64.57;97619.06;4956907;28;20034;-71
2022/11/04 07:46:36;;;;;;;26.35;15.23;;;;;;;10.92;64.84;97617.63;4974603;28;20110;-71
2022/11/04 07:49:01;;;;;;;25.05;14.15;;;;;;;10.95;65.00;97617.78;4976702;28;20260;-71
2022/11/04 07:51:27;;;;;;;25.63;16.15;;;;;;;10.98;65.06;97616.38;4982100;28;20034;-71
2022/11/04 07:53:54;;;;;;;27.10;14.38;;;;;;;10.98;64.53;97617.16;4991140;28;20030;-73
2022/11/04 07:56:22;;;;;;;26.20;14.95;;;;;;;10.98;64.88;97616.38;4965798;28;20030;-72
2022/11/04 07:58:48;;;;;;;33.38;17.55;;;;;;;10.99;64.65;97610.53;4981087;28;20110;-74
2022/11/04 08:01:16;;;;;;;34.65;17.77;;;;;;;11.02;64.94;97612.66;4969398;28;20105;-73
2022/11/04 08:03:42;;;;;;;33.85;17.33;;;;;;;11.05;64.88;97611.19;4978741;28;20034;-73
2022/11/04 08:06:10;;;;;;;31.85;17.02;;;;;;;11.09;65.28;97601.19;4979681;28;20392;-73
2022/11/04 08:08:36;;;;;;;38.85;21.70;;;;;;;11.16;65.38;97595.25;4975159;28;20034;-71
2022/11/04 08:11:14;;;;;;;36.58;21.20;;;;;;;11.25;65.28;97604.28;4973951;28;20027;-72
2022/11/04 08:13:40;;;;;;;37.05;24.35;;;;;;;11.35;64.98;97602.34;4974329;28;20433;-72
2022/11/04 08:16:17;;;;;;;40.53;26.83;;;;;;;11.41;65.34;97599.09;4974010;28;20051;-71
2022/11/04 08:18:43;;;;;;;37.15;25.83;;;;;;;11.48;65.27;97595.91;4974772;28;20035;-75
2022/11/04 08:21:10;;;;;;;34.63;19.95;;;;;;;11.56;65.14;97597.84;4980034;28;20170;-73
2022/11/04 08:23:35;;;;;;;31.92;17.70;;;;;;;11.62;65.06;97595.72;4979881;28;20019;-73
2022/11/04 08:26:01;;;;;;;27.35;16.33;;;;;;;11.70;64.99;97586.66;4986653;28;20050;-73
2022/11/04 08:28:28;;;;;;;28.20;16.52;;;;;;;11.77;65.22;97584.25;4985093;28;20044;-72
2022/11/04 08:31:06;;;;;;;31.42;17.30;;;;;;;11.85;65.17;97577.09;4982533;28;20027;-73
2022/11/04 08:33:32;;;;;;;32.25;17.05;;;;;;;11.93;64.74;97564.47;4989471;28;20034;-73
2022/11/04 08:36:00;;;;;;;32.67;17.08;;;;;;;12.01;65.29;97568.38;4989868;28;20026;-72
2022/11/04 08:38:27;;;;;;;32.38;17.60;;;;;;;12.08;64.93;97568.66;4976125;28;20034;-73
2022/11/04 08:40:56;;;;;;;30.45;16.85;;;;;;;12.17;65.05;97565.91;4982471;28;20041;-72
2022/11/04 08:43:22;;;;;;;31.40;15.82;;;;;;;12.25;65.23;97562.28;4987408;28;20366;-72
2022/11/04 08:45:47;;;;;;;32.00;15.57;;;;;;;12.32;64.94;97556.31;4977126;28;20081;-71
2022/11/04 08:48:15;;;;;;;28.63;16.20;;;;;;;12.39;65.01;97562.09;4974941;28;20030;-71
2022/11/04 08:50:41;;;;;;;29.83;16.38;;;;;;;12.46;64.92;97561.56;4978160;28;20464;-71
2022/11/04 08:53:06;;;;;;;25.67;15.35;;;;;;;12.52;64.67;97554.75;4975650;28;20030;-72
2022/11/04 08:55:32;;;;;;;30.15;15.82;;;;;;;12.57;64.99;97556.50;4979373;28;20039;-69
2022/11/04 08:57:58;;;;;;;29.95;16.70;;;;;;;12.62;64.76;97548.88;4983479;28;20034;-71
2022/11/04 09:00:26;;;;;;;28.35;15.10;;;;;;;12.67;64.75;97550.63;4990556;28;20480;-71
2022/11/04 09:02:54;;;;;;;20.35;11.40;;;;;;;12.72;64.76;97550.44;4981681;28;20034;-73
2022/11/04 09:05:20;;;;;;;18.35;10.55;;;;;;;12.79;64.57;97556.22;4991752;28;20038;-71
2022/11/04 09:07:45;;;;;;;15.43;9.40;;;;;;;12.87;64.78;97548.22;4993370;28;20026;-72
2022/11/04 09:10:10;;;;;;;15.73;8.82;;;;;;;12.97;64.68;97555.31;4993220;28;20113;-71
2022/11/04 09:12:36;;;;;;;13.15;7.70;;;;;;;13.02;64.70;97542.16;4992692;28;20045;-72
2022/11/04 09:15:04;;;;;;;17.27;8.15;;;;;;;13.08;64.51;97543.56;4984295;28;20035;-70
2022/11/04 09:17:29;;;;;;;13.75;9.07;;;;;;;13.12;64.36;97540.94;4977826;28;20027;-70
2022/11/04 09:19:55;;;;;;;16.77;9.40;;;;;;;13.20;63.98;97540.06;4972964;28;20385;-70
2022/11/04 09:22:21;;;;;;;17.95;10.32;;;;;;;13.30;64.45;97538.84;4971915;28;20031;-70
2022/11/04 09:24:47;;;;;;;16.17;9.13;;;;;;;13.38;64.81;97529.72;4971111;28;20023;-71
2022/11/04 09:27:13;;;;;;;13.52;8.25;;;;;;;13.47;64.33;97539.88;4971709;28;20489;-71
2022/11/04 09:29:39;;;;;;;15.98;8.52;;;;;;;13.52;64.28;97536.91;4971739;28;20034;-70
2022/11/04 09:32:06;;;;;;;15.85;8.52;;;;;;;13.57;64.04;97533.94;4971590;28;20469;-70
2022/11/04 09:34:31;;;;;;;13.88;8.57;;;;;;;13.64;63.86;97530.63;4970631;28;20019;-71
2022/11/04 09:36:58;;;;;;;20.38;11.15;;;;;;;13.73;64.28;97530.53;4971450;28;20026;-70
2022/11/04 09:39:24;;;;;;;23.90;14.55;;;;;;;13.81;63.81;97532.41;4954654;28;20073;-70
2022/11/04 09:41:55;;;;;;;39.20;23.85;;;;;;;13.88;63.92;97534.59;4972535;28;20030;-70
2022/11/04 09:44:38;;;;;;;46.00;27.05;;;;;;;13.97;63.81;97538.06;4971544;28;20476;-70
2022/11/04 09:47:09;;;;;;;45.15;28.13;;;;;;;14.05;63.76;97533.63;4991061;28;20030;-70
2022/11/04 09:49:38;;;;;;;24.17;13.93;;;;;;;14.09;63.66;97532.59;4991669;28;20025;-71
2022/11/04 09:52:16;;;;;;;18.60;9.85;;;;;;;14.11;62.99;97523.97;4991370;28;20042;-70
2022/11/04 09:54:50;;;;;;;14.97;9.87;;;;;;;14.08;63.05;97532.91;4991208;28;20471;-71
2022/11/04 09:57:17;;;;;;;17.85;8.70;;;;;;;14.07;62.42;97539.56;4972219;28;20050;-70
2022/11/04 09:59:44;;;;;;;14.82;7.95;;;;;;;14.05;62.66;97539.13;4972282;28;20034;-70
2022/11/04 10:02:10;;;;;;;14.35;7.78;;;;;;;14.06;62.87;97540.75;4954577;28;20404;-71
2022/11/04 10:04:35;;;;;;;16.30;8.32;;;;;;;14.07;62.71;97536.81;4970062;28;20035;-71
2022/11/04 10:07:19;;;;;;;12.35;7.90;;;;;;;14.11;63.00;97526.72;4971666;28;20033;-71
2022/11/04 10:10:00;;;;;;;15.05;8.18;;;;;;;14.12;62.79;97529.16;4987432;28;20109;-71
2022/11/04 10:12:42;;;;;;;14.38;8.32;;;;;;;14.16;62.85;97525.72;4990210;28;20037;-71
2022/11/04 10:15:29;;;;;;;17.05;9.48;;;;;;;14.20;63.01;97524.66;4989775;28;20057;-71
2022/11/04 10:18:12;;;;;;;19.42;11.43;;;;;;;14.24;62.75;97522.84;4974308;28;20077;-72
2022/11/04 10:20:54;;;;;;;15.85;8.63;;;;;;;14.26;62.95;97520.53;4971553;28;20473;-72
2022/11/04 10:23:25;;;;;;;13.73;8.15;;;;;;;14.28;62.50;97518.25;4987337;28;20500;-72
2022/11/04 10:26:22;;;;;;;12.18;7.82;;;;;;;14.27;62.62;97526.84;4990093;28;20479;-72
2022/11/04 10:28:58;;;;;;;13.93;7.90;;;;;;;14.26;62.34;97528.03;4990542;28;20041;-71
2022/11/04 10:31:24;;;;;;;13.07;8.00;;;;;;;14.25;62.49;97515.38;4990640;28;20491;-70
2022/11/04 10:34:02;;;;;;;18.58;9.30;;;;;;;14.24;62.03;97513.78;4990224;28;20030;-71
2022/11/04 10:36:29;;;;;;;17.20;8.80;;;;;;;14.25;62.28;97518.94;4977944;28;20027;-70
2022/11/04 10:38:55;;;;;;;15.38;8.68;;;;;;;14.24;62.23;97522.84;4971259;28;20504;-71
2022/11/04 10:41:32;;;;;;;16.63;9.45;;;;;;;14.25;61.90;97521.69;4970614;28;20109;-72
2022/11/04 10:44:07;;;;;;;19.52;10.98;;;;;;;14.26;61.77;97517.78;4989438;28;20030;-70
2022/11/04 10:47:00;;;;;;;25.23;12.70;;;;;;;14.28;61.99;97529.28;4989306;28;20018;-71
2022/11/04 10:49:54;;;;;;;19.17;10.30;;;;;;;14.27;61.85;97513.88;4983623;28;20362;-71
2022/11/04 10:52:21;;;;;;;19.23;11.52;;;;;;;14.30;61.63;97515.13;4982006;28;20041;-71
2022/11/04 10:54:48;;;;;;;16.48;10.70;;;;;;;14.33;61.70;97519.16;4983834;28;20030;-71
2022/11/04 10:57:20;;;;;;;16.27;9.25;;;;;;;14.35;61.96;97511.34;4986335;28;20019;-71
2022/11/04 10:59:49;;;;;;;16.40;8.90;;;;;;;14.39;61.96;97515.03;4990440;28;20022;-72
2022/11/04 11:02:14;;;;;;;16.20;8.98;;;;;;;14.41;61.57;97509.97;4972596;28;20400;-71
2022/11/04 11:04:40;;;;;;;16.13;9.60;;;;;;;14.40;61.67;97511.13;4989992;28;20026;-71
2022/11/04 11:07:11;;;;;;;14.13;8.88;;;;;;;14.39;61.72;97515.03;4989371;28;20026;-71
2022/11/04 11:09:50;;;;;;;15.50;9.25;;;;;;;14.38;61.51;97507.91;4990529;28;20038;-72
2022/11/04 11:12:25;;;;;;;20.42;10.55;;;;;;;14.40;61.75;97511.13;4989913;28;20069;-71
2022/11/04 11:14:51;;;;;;;16.42;8.63;;;;;;;14.41;61.44;97502.50;4969947;28;20428;-71
2022/11/04 11:17:22;;;;;;;17.92;8.90;;;;;;;14.43;61.58;97499.41;4971845;28;20027;-71
2022/11/04 11:19:49;;;;;;;17.20;9.38;;;;;;;14.44;61.77;97499.06;4992172;28;20030;-71
2022/11/04 11:22:34;;;;;;;16.83;8.60;;;;;;;14.46;61.31;97495.97;4993974;28;20057;-72
2022/11/04 11:25:28;;;;;;;17.20;9.93;;;;;;;14.51;61.36;97487.44;4993314;28;20038;-71
2022/11/04 11:28:04;;;;;;;17.95;9.30;;;;;;;14.59;61.51;97494.78;4993663;28;20027;-71
2022/11/04 11:30:45;;;;;;;16.42;9.25;;;;;;;14.67;61.44;97492.25;4993666;28;20030;-72
2022/11/04 11:33:16;;;;;;;16.27;9.27;;;;;;;14.72;61.44;97492.84;4993390;28;20034;-71
2022/11/04 11:35:51;;;;;;;18.58;9.73;;;;;;;14.75;61.30;97485.81;4979010;28;20034;-71
2022/11/04 11:38:23;;;;;;;17.77;10.18;;;;;;;14.78;61.05;97479.63;4979418;28;20038;-71
2022/11/04 11:40:51;;;;;;;19.15;10.48;;;;;;;14.79;61.05;97469.38;4964511;28;20125;-72
2022/11/04 11:43:27;;;;;;;18.52;9.68;;;;;;;14.83;60.79;97470.28;4979220;28;20026;-71
2022/11/04 11:45:53;;;;;;;20.10;9.25;;;;;;;14.84;60.50;97464.44;4973353;28;20026;-71
2022/11/04 11:48:42;;;;;;;16.23;9.15;;;;;;;14.83;60.76;97465.56;4975813;28;20022;-71
2022/11/04 11:51:13;;;;;;;18.00;9.65;;;;;;;14.84;60.57;97467.19;4973600;28;20035;-71
2022/11/04 11:53:44;;;;;;;16.17;9.40;;;;;;;14.84;60.10;97469.94;4973171;28;20081;-70
2022/11/04 11:56:29;;;;;;;17.27;9.75;;;;;;;14.81;60.83;97467.06;4980617;28;20033;-69
2022/11/04 11:59:06;;;;;;;16.60;9.18;;;;;;;14.79;60.21;97461.91;4972880;28;20034;-71
2022/11/04 12:02:02;;;;;;;15.10;9.55;;;;;;;14.76;60.34;97465.34;4989886;28;20042;-72
2022/11/04 12:04:27;;;;;;;17.73;9.20;;;;;;;14.76;60.84;97464.53;4982339;28;20065;-72
2022/11/04 12:07:25;;;;;;;13.98;9.45;;;;;;;14.73;60.38;97461.31;4972867;28;20031;-73